Regen radar Meer informatie rain snow radar


Bezoek onze andere website:

Template documentation
and downloads

And another site


Het weer levert geen direct gevaar op.    Er zijn geen waarschuwingen afgegeven.

METAR rapporten vliegvelden

   
EBAW - Antwerp
Gewijzigd: 16-07-2020 16:50
Gedeeltelijk bewolkt  
Gedeeltelijk bewolkt  
   Wind: NW 22.2 km/h
Wind: NW 22.2 km/h
Temperatuur: 18°C
Dauwpunt: 13°C
Vochtigheid: 73%
Barometer: 1018 hPa
Bewolking: Gedeeltelijk bewolkt
Zicht: meer dan 10 km
Bewolking: Gedeeltelijk bewolkt 2000 ft
EBAW 161450Z 32012KT 9999 SCT020 18/13 Q1018 NOSIG
EBLG - Li├Ęge
Gewijzigd: 16-07-2020 16:50
Light Showers, Regen, Grotendeels bewolkt  
Light Showers, Regen, Grotendeels bewolkt  
   Wind: WNW 11.1 km/h
Wind: WNW 11.1 km/h
Temperatuur: 16°C
Dauwpunt: 14°C
Vochtigheid: 88%
Barometer: 1018 hPa
Bewolking: Grotendeels bewolkt
Zicht: meer dan 10 km
Bewolking: Grotendeels bewolkt 1200 ft
EBLG 161450Z 29006KT 230V320 9999 -SHRA BKN012 16/14 Q1018 NOSIG
EBCV - Mons/Bergen
Gewijzigd: 16-07-2020 16:25
Bewolking  
Bewolking  
   Wind: NNW 14.8 km/h
Wind: NNW 14.8 km/h
Temperatuur: 18°C
Dauwpunt: 13°C
Vochtigheid: 73%
Barometer: 1019 hPa
Bewolking: Bewolking
Zicht: meer dan 10 km
Bewolking: Bewolking 2000 ft
EBCV 161425Z AUTO 33008KT 9999 OVC020/// 18/13 Q1019 WHT
EHBK - Maastricht
Gewijzigd: 16-07-2020 16:25
Bewolking  
Bewolking  
   Wind: NW 11.1 km/h
Wind: NW 11.1 km/h
Temperatuur: 16°C
Dauwpunt: 14°C
Vochtigheid: 88%
Barometer: 1018 hPa
Bewolking: Bewolking
Zicht: meer dan 10 km
Bewolking: Gedeeltelijk bewolkt 3300 ft,
Bewolking 3800 ft
EHBK 161425Z AUTO 31006KT 250V010 9999 SCT033 OVC038 16/14 Q1018 TEMPO 5000 -RADZ -SHRA BKN014 FEW020TCU
ELLX - Luxemburg
Gewijzigd: 16-07-2020 16:50
Grotendeels bewolkt  
Grotendeels bewolkt  
   Wind: Westen 20.4 km/h
Wind: Westen 20.4 km/h
Temperatuur: 16°C
Dauwpunt: 13°C
Vochtigheid: 83%
Barometer: 1019 hPa
Bewolking: Grotendeels bewolkt
Zicht: meer dan 10 km
Bewolking: Licht bewolkt 900 ft,
Grotendeels bewolkt 1400 ft
ELLX 161450Z 27011KT 9999 FEW009 BKN014 16/13 Q1019 TEMPO BKN020
EBOS - Oostende
Gewijzigd: 16-07-2020 16:50
Gedeeltelijk bewolkt  
Gedeeltelijk bewolkt  
   Wind: NW 16.7 km/h
Wind: NW 16.7 km/h
Temperatuur: 18°C
Dauwpunt: 13°C
Vochtigheid: 73%
Barometer: 1020 hPa
Bewolking: Gedeeltelijk bewolkt
Zicht: meer dan 10 km
Bewolking: Gedeeltelijk bewolkt 1500 ft
EBOS 161450Z 32009KT 9999 SCT015 18/13 Q1020 NOSIG

Script ontwikkeld door  Saratoga-weather.org Aangepast voor de template door  Weerstation Leuven

U vindt ons ook hier:

UK Metoffice

European Weather Network

WeatherCloud

Weather Underground

AWEKAS

WeatherlinkIP

Citizen Weather Observer Program (CWOP)

HAMweather, WeatherForYou, PWS Weather

Wetterpage 24

Apparatuur in gebruik:

Weerstation
Davis VP2

Weerprogramma
Meteohub

Weercomputer
ALIX.1D

Webleverancier
Flexwebhosting

Davis VP2

Meteohub

ALIX.1D

Flexwebhosting